sensor_id;sensor_type;location;lat;lon;timestamp;temperature;humidity
53748;DHT22;39655;53.210;5.768;2023-12-07T00:01:10;2.20;94.00
53748;DHT22;39655;53.210;5.768;2023-12-07T00:03:36;2.10;94.00
53748;DHT22;39655;53.210;5.768;2023-12-07T00:06:02;2.00;93.90
53748;DHT22;39655;53.210;5.768;2023-12-07T00:08:27;1.90;93.80
53748;DHT22;39655;53.210;5.768;2023-12-07T00:10:53;1.80;93.70
53748;DHT22;39655;53.210;5.768;2023-12-07T00:13:18;1.60;93.70
53748;DHT22;39655;53.210;5.768;2023-12-07T00:15:44;1.50;93.70
53748;DHT22;39655;53.210;5.768;2023-12-07T00:18:10;1.40;93.70
53748;DHT22;39655;53.210;5.768;2023-12-07T00:20:35;1.30;93.70
53748;DHT22;39655;53.210;5.768;2023-12-07T00:23:01;1.20;93.80
53748;DHT22;39655;53.210;5.768;2023-12-07T00:25:26;1.10;93.80
53748;DHT22;39655;53.210;5.768;2023-12-07T00:27:52;1.10;93.90
53748;DHT22;39655;53.210;5.768;2023-12-07T00:30:18;1.00;94.00
53748;DHT22;39655;53.210;5.768;2023-12-07T00:32:43;0.90;94.00
53748;DHT22;39655;53.210;5.768;2023-12-07T00:35:11;0.90;94.10
53748;DHT22;39655;53.210;5.768;2023-12-07T00:37:37;0.80;94.20
53748;DHT22;39655;53.210;5.768;2023-12-07T00:40:03;0.80;94.30
53748;DHT22;39655;53.210;5.768;2023-12-07T00:42:29;0.90;94.50
53748;DHT22;39655;53.210;5.768;2023-12-07T00:44:55;0.90;94.60
53748;DHT22;39655;53.210;5.768;2023-12-07T00:47:21;1.00;94.60
53748;DHT22;39655;53.210;5.768;2023-12-07T00:49:47;1.00;94.70
53748;DHT22;39655;53.210;5.768;2023-12-07T00:52:13;1.00;94.80
53748;DHT22;39655;53.210;5.768;2023-12-07T00:54:39;1.00;94.80
53748;DHT22;39655;53.210;5.768;2023-12-07T00:57:05;1.00;94.80
53748;DHT22;39655;53.210;5.768;2023-12-07T00:59:31;1.10;94.90
53748;DHT22;39655;53.210;5.768;2023-12-07T01:02:08;1.20;95.00
53748;DHT22;39655;53.210;5.768;2023-12-07T01:04:34;1.30;95.00
53748;DHT22;39655;53.210;5.768;2023-12-07T01:07:00;1.40;95.10
53748;DHT22;39655;53.210;5.768;2023-12-07T01:09:26;1.60;95.10
53748;DHT22;39655;53.210;5.768;2023-12-07T01:11:51;1.60;94.90
53748;DHT22;39655;53.210;5.768;2023-12-07T01:14:18;1.50;94.80
53748;DHT22;39655;53.210;5.768;2023-12-07T01:16:44;1.50;94.80
53748;DHT22;39655;53.210;5.768;2023-12-07T01:19:10;1.40;94.80
53748;DHT22;39655;53.210;5.768;2023-12-07T01:21:40;1.40;94.70
53748;DHT22;39655;53.210;5.768;2023-12-07T01:24:05;1.30;94.60
53748;DHT22;39655;53.210;5.768;2023-12-07T01:26:31;1.20;94.60
53748;DHT22;39655;53.210;5.768;2023-12-07T01:28:57;1.10;94.70
53748;DHT22;39655;53.210;5.768;2023-12-07T01:31:23;1.10;94.60
53748;DHT22;39655;53.210;5.768;2023-12-07T01:33:48;1.10;94.70
53748;DHT22;39655;53.210;5.768;2023-12-07T01:36:14;1.00;94.60
53748;DHT22;39655;53.210;5.768;2023-12-07T01:38:40;0.90;94.60
53748;DHT22;39655;53.210;5.768;2023-12-07T01:41:05;0.70;94.60
53748;DHT22;39655;53.210;5.768;2023-12-07T01:43:31;0.60;94.50
53748;DHT22;39655;53.210;5.768;2023-12-07T01:45:57;0.50;94.50
53748;DHT22;39655;53.210;5.768;2023-12-07T01:48:25;0.40;94.50
53748;DHT22;39655;53.210;5.768;2023-12-07T01:50:55;0.30;94.50
53748;DHT22;39655;53.210;5.768;2023-12-07T01:53:23;0.30;94.50
53748;DHT22;39655;53.210;5.768;2023-12-07T01:55:49;0.20;94.60
53748;DHT22;39655;53.210;5.768;2023-12-07T01:58:17;0.20;94.60
53748;DHT22;39655;53.210;5.768;2023-12-07T02:00:43;0.20;94.70
53748;DHT22;39655;53.210;5.768;2023-12-07T02:03:09;0.10;94.70
53748;DHT22;39655;53.210;5.768;2023-12-07T02:05:36;0.10;94.80
53748;DHT22;39655;53.210;5.768;2023-12-07T02:08:03;0.10;94.80
53748;DHT22;39655;53.210;5.768;2023-12-07T02:10:28;0.10;94.80
53748;DHT22;39655;53.210;5.768;2023-12-07T02:12:55;0.10;94.80
53748;DHT22;39655;53.210;5.768;2023-12-07T02:15:21;0.10;94.80
53748;DHT22;39655;53.210;5.768;2023-12-07T02:18:06;0.10;94.90
53748;DHT22;39655;53.210;5.768;2023-12-07T02:23:27;0.10;94.90
53748;DHT22;39655;53.210;5.768;2023-12-07T02:25:54;0.20;95.00
53748;DHT22;39655;53.210;5.768;2023-12-07T02:28:23;0.20;95.10
53748;DHT22;39655;53.210;5.768;2023-12-07T02:30:48;0.20;95.10
53748;DHT22;39655;53.210;5.768;2023-12-07T02:33:14;0.20;95.20
53748;DHT22;39655;53.210;5.768;2023-12-07T02:35:41;0.20;95.20
53748;DHT22;39655;53.210;5.768;2023-12-07T02:38:07;0.20;95.10
53748;DHT22;39655;53.210;5.768;2023-12-07T02:40:34;0.10;95.10
53748;DHT22;39655;53.210;5.768;2023-12-07T02:43:01;0.10;95.20
53748;DHT22;39655;53.210;5.768;2023-12-07T02:45:28;0.10;95.20
53748;DHT22;39655;53.210;5.768;2023-12-07T02:47:54;0.00;95.10
53748;DHT22;39655;53.210;5.768;2023-12-07T02:50:20;0.00;95.10
53748;DHT22;39655;53.210;5.768;2023-12-07T02:52:45;0.00;95.10
53748;DHT22;39655;53.210;5.768;2023-12-07T02:55:11;0.00;95.20
53748;DHT22;39655;53.210;5.768;2023-12-07T02:57:37;0.00;95.30
53748;DHT22;39655;53.210;5.768;2023-12-07T03:00:04;0.00;95.40
53748;DHT22;39655;53.210;5.768;2023-12-07T03:02:36;0.00;95.40
53748;DHT22;39655;53.210;5.768;2023-12-07T03:05:02;0.00;95.40
53748;DHT22;39655;53.210;5.768;2023-12-07T03:07:28;0.00;95.40
53748;DHT22;39655;53.210;5.768;2023-12-07T03:09:54;0.00;95.40
53748;DHT22;39655;53.210;5.768;2023-12-07T03:12:19;-3276.70;95.40
53748;DHT22;39655;53.210;5.768;2023-12-07T03:14:45;-3276.70;95.40
53748;DHT22;39655;53.210;5.768;2023-12-07T03:17:11;-3276.60;95.50
53748;DHT22;39655;53.210;5.768;2023-12-07T03:19:40;-3276.60;95.50
53748;DHT22;39655;53.210;5.768;2023-12-07T03:22:06;-3276.60;95.50
53748;DHT22;39655;53.210;5.768;2023-12-07T03:24:36;-3276.60;95.50
53748;DHT22;39655;53.210;5.768;2023-12-07T03:27:02;-3276.60;95.50
53748;DHT22;39655;53.210;5.768;2023-12-07T03:29:28;-3276.60;95.60
53748;DHT22;39655;53.210;5.768;2023-12-07T03:31:54;-3276.50;95.60
53748;DHT22;39655;53.210;5.768;2023-12-07T03:34:19;-3276.60;95.70
53748;DHT22;39655;53.210;5.768;2023-12-07T03:36:45;-3276.60;95.70
53748;DHT22;39655;53.210;5.768;2023-12-07T03:39:11;-3276.60;95.70
53748;DHT22;39655;53.210;5.768;2023-12-07T03:41:38;-3276.50;95.70
53748;DHT22;39655;53.210;5.768;2023-12-07T03:44:04;-3276.50;95.80
53748;DHT22;39655;53.210;5.768;2023-12-07T03:46:29;-3276.60;95.80
53748;DHT22;39655;53.210;5.768;2023-12-07T03:48:55;-3276.60;95.80
53748;DHT22;39655;53.210;5.768;2023-12-07T03:51:20;-3276.70;95.90
53748;DHT22;39655;53.210;5.768;2023-12-07T03:53:46;-3276.70;95.90
53748;DHT22;39655;53.210;5.768;2023-12-07T03:56:25;-3276.70;95.90
53748;DHT22;39655;53.210;5.768;2023-12-07T03:58:51;0.00;96.00
53748;DHT22;39655;53.210;5.768;2023-12-07T04:01:16;0.00;96.00
53748;DHT22;39655;53.210;5.768;2023-12-07T04:03:42;0.00;96.00
53748;DHT22;39655;53.210;5.768;2023-12-07T04:06:08;0.00;96.00
53748;DHT22;39655;53.210;5.768;2023-12-07T04:08:34;0.00;96.00
53748;DHT22;39655;53.210;5.768;2023-12-07T04:11:00;0.00;96.00
53748;DHT22;39655;53.210;5.768;2023-12-07T04:13:25;0.00;96.10
53748;DHT22;39655;53.210;5.768;2023-12-07T04:15:51;0.10;96.10
53748;DHT22;39655;53.210;5.768;2023-12-07T04:18:17;0.20;96.20
53748;DHT22;39655;53.210;5.768;2023-12-07T04:20:43;0.20;96.10
53748;DHT22;39655;53.210;5.768;2023-12-07T04:23:08;0.20;96.10
53748;DHT22;39655;53.210;5.768;2023-12-07T04:25:34;0.30;96.10
53748;DHT22;39655;53.210;5.768;2023-12-07T04:27:59;0.30;96.10
53748;DHT22;39655;53.210;5.768;2023-12-07T04:30:25;0.30;96.10
53748;DHT22;39655;53.210;5.768;2023-12-07T04:32:51;0.30;96.00
53748;DHT22;39655;53.210;5.768;2023-12-07T04:35:16;0.20;96.00
53748;DHT22;39655;53.210;5.768;2023-12-07T04:37:42;0.20;96.00
53748;DHT22;39655;53.210;5.768;2023-12-07T04:40:08;0.20;95.90
53748;DHT22;39655;53.210;5.768;2023-12-07T04:42:36;0.20;96.00
53748;DHT22;39655;53.210;5.768;2023-12-07T04:45:02;0.20;96.00
53748;DHT22;39655;53.210;5.768;2023-12-07T04:47:27;0.20;95.90
53748;DHT22;39655;53.210;5.768;2023-12-07T04:49:53;0.10;95.90
53748;DHT22;39655;53.210;5.768;2023-12-07T04:52:19;0.10;96.00
53748;DHT22;39655;53.210;5.768;2023-12-07T04:54:44;0.10;96.00
53748;DHT22;39655;53.210;5.768;2023-12-07T04:57:10;0.00;95.90
53748;DHT22;39655;53.210;5.768;2023-12-07T04:59:36;0.00;95.80
53748;DHT22;39655;53.210;5.768;2023-12-07T05:02:01;0.00;95.80
53748;DHT22;39655;53.210;5.768;2023-12-07T05:04:27;0.00;95.90
53748;DHT22;39655;53.210;5.768;2023-12-07T05:06:53;0.00;95.90
53748;DHT22;39655;53.210;5.768;2023-12-07T05:09:19;0.00;96.00
53748;DHT22;39655;53.210;5.768;2023-12-07T05:11:44;0.00;95.90
53748;DHT22;39655;53.210;5.768;2023-12-07T05:14:11;0.00;95.90
53748;DHT22;39655;53.210;5.768;2023-12-07T05:16:36;-3276.70;95.80
53748;DHT22;39655;53.210;5.768;2023-12-07T05:19:02;-3276.60;95.80
53748;DHT22;39655;53.210;5.768;2023-12-07T05:21:28;-3276.50;95.80
53748;DHT22;39655;53.210;5.768;2023-12-07T05:23:53;-3276.50;95.80
53748;DHT22;39655;53.210;5.768;2023-12-07T05:26:19;-3276.40;95.80
53748;DHT22;39655;53.210;5.768;2023-12-07T05:28:46;-3276.30;95.70
53748;DHT22;39655;53.210;5.768;2023-12-07T05:31:18;-3276.30;95.70
53748;DHT22;39655;53.210;5.768;2023-12-07T05:33:44;-3276.20;95.70
53748;DHT22;39655;53.210;5.768;2023-12-07T05:36:10;-3276.10;95.70
53748;DHT22;39655;53.210;5.768;2023-12-07T05:38:35;-3276.10;95.70
53748;DHT22;39655;53.210;5.768;2023-12-07T05:41:01;-3276.10;95.80
53748;DHT22;39655;53.210;5.768;2023-12-07T05:43:27;-3276.10;95.80
53748;DHT22;39655;53.210;5.768;2023-12-07T05:45:52;-3276.10;95.80
53748;DHT22;39655;53.210;5.768;2023-12-07T05:48:18;-3276.00;95.80
53748;DHT22;39655;53.210;5.768;2023-12-07T05:50:43;-3276.00;95.80
53748;DHT22;39655;53.210;5.768;2023-12-07T05:53:09;-3275.90;95.80
53748;DHT22;39655;53.210;5.768;2023-12-07T05:55:36;-3275.90;95.80
53748;DHT22;39655;53.210;5.768;2023-12-07T05:58:02;-3275.80;95.80
53748;DHT22;39655;53.210;5.768;2023-12-07T06:00:29;-3275.80;95.80
53748;DHT22;39655;53.210;5.768;2023-12-07T06:02:55;-3275.80;95.80
53748;DHT22;39655;53.210;5.768;2023-12-07T06:05:20;-3275.70;95.80
53748;DHT22;39655;53.210;5.768;2023-12-07T06:07:46;-3275.70;95.80
53748;DHT22;39655;53.210;5.768;2023-12-07T06:10:12;-3275.70;95.80
53748;DHT22;39655;53.210;5.768;2023-12-07T06:12:37;-3275.70;95.80
53748;DHT22;39655;53.210;5.768;2023-12-07T06:15:04;-3275.70;95.90
53748;DHT22;39655;53.210;5.768;2023-12-07T06:17:33;-3275.70;95.90
53748;DHT22;39655;53.210;5.768;2023-12-07T06:19:59;-3275.70;96.00
53748;DHT22;39655;53.210;5.768;2023-12-07T06:22:25;-3275.70;96.10
53748;DHT22;39655;53.210;5.768;2023-12-07T06:24:50;-3275.80;96.00
53748;DHT22;39655;53.210;5.768;2023-12-07T06:27:16;-3275.80;96.00
53748;DHT22;39655;53.210;5.768;2023-12-07T06:29:41;-3275.80;96.10
53748;DHT22;39655;53.210;5.768;2023-12-07T06:32:07;-3275.80;96.10
53748;DHT22;39655;53.210;5.768;2023-12-07T06:34:32;-3275.80;96.10
53748;DHT22;39655;53.210;5.768;2023-12-07T06:36:58;-3275.80;96.10
53748;DHT22;39655;53.210;5.768;2023-12-07T06:39:24;-3275.80;96.20
53748;DHT22;39655;53.210;5.768;2023-12-07T06:41:49;-3275.80;96.20
53748;DHT22;39655;53.210;5.768;2023-12-07T06:44:15;-3275.80;96.20
53748;DHT22;39655;53.210;5.768;2023-12-07T06:46:40;-3275.80;96.20
53748;DHT22;39655;53.210;5.768;2023-12-07T06:49:06;-3275.90;96.30
53748;DHT22;39655;53.210;5.768;2023-12-07T06:51:32;-3275.90;96.20
53748;DHT22;39655;53.210;5.768;2023-12-07T06:53:57;-3275.90;96.30
53748;DHT22;39655;53.210;5.768;2023-12-07T06:56:23;-3276.00;96.30
53748;DHT22;39655;53.210;5.768;2023-12-07T06:58:49;-3276.00;96.30
53748;DHT22;39655;53.210;5.768;2023-12-07T07:01:14;-3276.00;96.40
53748;DHT22;39655;53.210;5.768;2023-12-07T07:03:40;-3276.00;96.40
53748;DHT22;39655;53.210;5.768;2023-12-07T07:06:05;-3276.00;96.30
53748;DHT22;39655;53.210;5.768;2023-12-07T07:08:31;-3276.00;96.40
53748;DHT22;39655;53.210;5.768;2023-12-07T07:10:57;-3276.00;96.40
53748;DHT22;39655;53.210;5.768;2023-12-07T07:13:22;-3276.10;96.40
53748;DHT22;39655;53.210;5.768;2023-12-07T07:15:49;-3276.10;96.50
53748;DHT22;39655;53.210;5.768;2023-12-07T07:18:14;-3276.10;96.40
53748;DHT22;39655;53.210;5.768;2023-12-07T07:20:40;-3276.00;96.40
53748;DHT22;39655;53.210;5.768;2023-12-07T07:23:06;-3276.00;96.40
53748;DHT22;39655;53.210;5.768;2023-12-07T07:25:33;-3276.00;96.40
53748;DHT22;39655;53.210;5.768;2023-12-07T07:27:59;-3276.00;96.40
53748;DHT22;39655;53.210;5.768;2023-12-07T07:30:25;-3276.00;96.50
53748;DHT22;39655;53.210;5.768;2023-12-07T07:32:52;-3275.90;96.50
53748;DHT22;39655;53.210;5.768;2023-12-07T07:35:17;-3276.00;96.50
53748;DHT22;39655;53.210;5.768;2023-12-07T07:37:43;-3276.00;96.50
53748;DHT22;39655;53.210;5.768;2023-12-07T07:40:09;-3275.90;96.50
53748;DHT22;39655;53.210;5.768;2023-12-07T07:42:40;-3275.90;96.50
53748;DHT22;39655;53.210;5.768;2023-12-07T07:45:07;-3275.90;96.60
53748;DHT22;39655;53.210;5.768;2023-12-07T07:47:33;-3275.90;96.60
53748;DHT22;39655;53.210;5.768;2023-12-07T07:49:59;-3275.90;96.60
53748;DHT22;39655;53.210;5.768;2023-12-07T07:52:24;-3276.00;96.70
53748;DHT22;39655;53.210;5.768;2023-12-07T07:54:50;-3276.00;96.70
53748;DHT22;39655;53.210;5.768;2023-12-07T07:57:16;-3276.10;96.70
53748;DHT22;39655;53.210;5.768;2023-12-07T07:59:42;-3276.20;96.70
53748;DHT22;39655;53.210;5.768;2023-12-07T08:02:07;-3276.20;96.80
53748;DHT22;39655;53.210;5.768;2023-12-07T08:04:33;-3276.30;96.80
53748;DHT22;39655;53.210;5.768;2023-12-07T08:06:58;-3276.30;96.80
53748;DHT22;39655;53.210;5.768;2023-12-07T08:09:24;-3276.30;96.80
53748;DHT22;39655;53.210;5.768;2023-12-07T08:11:49;-3276.40;96.80
53748;DHT22;39655;53.210;5.768;2023-12-07T08:14:15;-3276.40;96.80
53748;DHT22;39655;53.210;5.768;2023-12-07T08:16:44;-3276.40;96.80
53748;DHT22;39655;53.210;5.768;2023-12-07T08:19:12;-3276.40;96.80
53748;DHT22;39655;53.210;5.768;2023-12-07T08:21:38;-3276.40;96.80
53748;DHT22;39655;53.210;5.768;2023-12-07T08:24:04;-3276.50;96.90
53748;DHT22;39655;53.210;5.768;2023-12-07T08:26:31;-3276.60;96.90
53748;DHT22;39655;53.210;5.768;2023-12-07T08:28:57;-3276.60;96.90
53748;DHT22;39655;53.210;5.768;2023-12-07T08:31:23;-3276.60;96.90
53748;DHT22;39655;53.210;5.768;2023-12-07T08:33:50;-3276.60;96.90
53748;DHT22;39655;53.210;5.768;2023-12-07T08:36:16;-3276.60;96.80
53748;DHT22;39655;53.210;5.768;2023-12-07T08:38:42;-3276.60;96.80
53748;DHT22;39655;53.210;5.768;2023-12-07T08:41:08;-3276.70;96.90
53748;DHT22;39655;53.210;5.768;2023-12-07T08:43:33;-3276.70;96.90
53748;DHT22;39655;53.210;5.768;2023-12-07T08:45:59;-3276.70;97.00
53748;DHT22;39655;53.210;5.768;2023-12-07T08:48:24;0.00;96.90
53748;DHT22;39655;53.210;5.768;2023-12-07T08:50:50;0.00;97.00
53748;DHT22;39655;53.210;5.768;2023-12-07T08:53:17;0.10;97.00
53748;DHT22;39655;53.210;5.768;2023-12-07T08:55:42;0.20;97.10
53748;DHT22;39655;53.210;5.768;2023-12-07T08:58:08;0.20;97.00
53748;DHT22;39655;53.210;5.768;2023-12-07T09:00:37;0.20;97.00
53748;DHT22;39655;53.210;5.768;2023-12-07T09:03:03;0.20;97.10
53748;DHT22;39655;53.210;5.768;2023-12-07T09:05:29;0.20;97.10
53748;DHT22;39655;53.210;5.768;2023-12-07T09:07:55;0.30;97.10
53748;DHT22;39655;53.210;5.768;2023-12-07T09:10:22;0.40;97.20
53748;DHT22;39655;53.210;5.768;2023-12-07T09:12:48;0.50;97.20
53748;DHT22;39655;53.210;5.768;2023-12-07T09:15:14;0.60;97.20
53748;DHT22;39655;53.210;5.768;2023-12-07T09:17:40;0.60;97.10
53748;DHT22;39655;53.210;5.768;2023-12-07T09:20:07;0.60;97.20
53748;DHT22;39655;53.210;5.768;2023-12-07T09:22:44;0.60;97.20
53748;DHT22;39655;53.210;5.768;2023-12-07T09:25:10;0.70;97.20
53748;DHT22;39655;53.210;5.768;2023-12-07T09:27:37;0.70;97.20
53748;DHT22;39655;53.210;5.768;2023-12-07T09:30:12;0.80;97.20
53748;DHT22;39655;53.210;5.768;2023-12-07T09:32:40;0.80;97.30
53748;DHT22;39655;53.210;5.768;2023-12-07T09:35:08;0.90;97.30
53748;DHT22;39655;53.210;5.768;2023-12-07T09:37:40;0.90;97.30
53748;DHT22;39655;53.210;5.768;2023-12-07T09:40:06;0.90;97.30
53748;DHT22;39655;53.210;5.768;2023-12-07T09:42:33;0.90;97.30
53748;DHT22;39655;53.210;5.768;2023-12-07T09:44:59;1.00;97.30
53748;DHT22;39655;53.210;5.768;2023-12-07T09:47:27;1.00;97.30
53748;DHT22;39655;53.210;5.768;2023-12-07T09:49:53;1.00;97.20
53748;DHT22;39655;53.210;5.768;2023-12-07T09:52:20;1.00;97.20
53748;DHT22;39655;53.210;5.768;2023-12-07T09:54:47;1.00;97.20
53748;DHT22;39655;53.210;5.768;2023-12-07T09:57:12;1.00;97.30
53748;DHT22;39655;53.210;5.768;2023-12-07T09:59:40;1.10;97.30
53748;DHT22;39655;53.210;5.768;2023-12-07T10:02:06;1.10;97.30
53748;DHT22;39655;53.210;5.768;2023-12-07T10:04:33;1.10;97.30
53748;DHT22;39655;53.210;5.768;2023-12-07T10:06:58;1.20;97.30
53748;DHT22;39655;53.210;5.768;2023-12-07T10:09:24;1.20;97.30
53748;DHT22;39655;53.210;5.768;2023-12-07T10:12:02;1.20;97.30
53748;DHT22;39655;53.210;5.768;2023-12-07T10:14:27;1.20;97.30
53748;DHT22;39655;53.210;5.768;2023-12-07T10:16:54;1.30;97.20
53748;DHT22;39655;53.210;5.768;2023-12-07T10:19:24;1.30;97.30
53748;DHT22;39655;53.210;5.768;2023-12-07T10:21:51;1.30;97.30
53748;DHT22;39655;53.210;5.768;2023-12-07T10:24:21;1.40;97.30
53748;DHT22;39655;53.210;5.768;2023-12-07T10:26:48;1.40;97.30
53748;DHT22;39655;53.210;5.768;2023-12-07T10:29:14;1.40;97.20
53748;DHT22;39655;53.210;5.768;2023-12-07T10:31:40;1.50;97.30
53748;DHT22;39655;53.210;5.768;2023-12-07T10:34:06;1.50;97.20
53748;DHT22;39655;53.210;5.768;2023-12-07T10:36:32;1.60;97.30
53748;DHT22;39655;53.210;5.768;2023-12-07T10:38:58;1.60;97.30
53748;DHT22;39655;53.210;5.768;2023-12-07T10:41:24;1.70;97.30
53748;DHT22;39655;53.210;5.768;2023-12-07T10:43:57;1.70;97.30
53748;DHT22;39655;53.210;5.768;2023-12-07T10:46:24;1.80;97.30
53748;DHT22;39655;53.210;5.768;2023-12-07T10:48:55;1.80;97.30
53748;DHT22;39655;53.210;5.768;2023-12-07T10:51:47;1.90;97.30
53748;DHT22;39655;53.210;5.768;2023-12-07T10:54:18;1.90;97.30
53748;DHT22;39655;53.210;5.768;2023-12-07T10:56:46;2.00;97.30
53748;DHT22;39655;53.210;5.768;2023-12-07T10:59:12;2.00;97.30
53748;DHT22;39655;53.210;5.768;2023-12-07T11:01:42;2.10;97.30
53748;DHT22;39655;53.210;5.768;2023-12-07T11:04:12;2.20;97.30
53748;DHT22;39655;53.210;5.768;2023-12-07T11:06:39;2.30;97.30
53748;DHT22;39655;53.210;5.768;2023-12-07T11:09:10;2.30;97.20
53748;DHT22;39655;53.210;5.768;2023-12-07T11:11:41;2.40;97.20
53748;DHT22;39655;53.210;5.768;2023-12-07T11:14:10;2.40;97.20
53748;DHT22;39655;53.210;5.768;2023-12-07T11:16:43;2.50;97.30
53748;DHT22;39655;53.210;5.768;2023-12-07T11:21:56;2.70;97.50
53748;DHT22;39655;53.210;5.768;2023-12-07T11:24:23;2.90;97.60
53748;DHT22;39655;53.210;5.768;2023-12-07T11:26:52;3.10;97.90
53748;DHT22;39655;53.210;5.768;2023-12-07T11:29:21;3.30;98.00
53748;DHT22;39655;53.210;5.768;2023-12-07T11:31:49;3.70;98.10
53748;DHT22;39655;53.210;5.768;2023-12-07T11:34:37;4.10;98.20
53748;DHT22;39655;53.210;5.768;2023-12-07T11:37:03;4.60;98.20
53748;DHT22;39655;53.210;5.768;2023-12-07T11:39:30;5.00;98.00
53748;DHT22;39655;53.210;5.768;2023-12-07T11:42:16;5.30;97.40
53748;DHT22;39655;53.210;5.768;2023-12-07T11:44:43;5.60;96.30
53748;DHT22;39655;53.210;5.768;2023-12-07T11:47:10;6.00;95.80
53748;DHT22;39655;53.210;5.768;2023-12-07T11:49:42;6.50;94.60
53748;DHT22;39655;53.210;5.768;2023-12-07T11:54:46;7.30;92.70
53748;DHT22;39655;53.210;5.768;2023-12-07T11:57:16;7.60;91.40
53748;DHT22;39655;53.210;5.768;2023-12-07T11:59:45;8.00;89.90
53748;DHT22;39655;53.210;5.768;2023-12-07T12:02:13;8.10;89.00
53748;DHT22;39655;53.210;5.768;2023-12-07T12:04:42;8.20;88.40
53748;DHT22;39655;53.210;5.768;2023-12-07T12:07:08;7.80;87.80
53748;DHT22;39655;53.210;5.768;2023-12-07T12:09:33;7.10;87.20
53748;DHT22;39655;53.210;5.768;2023-12-07T12:11:59;7.00;89.80
53748;DHT22;39655;53.210;5.768;2023-12-07T12:14:26;7.40;89.90
53748;DHT22;39655;53.210;5.768;2023-12-07T12:16:52;7.90;89.40
53748;DHT22;39655;53.210;5.768;2023-12-07T12:19:18;7.90;86.90
53748;DHT22;39655;53.210;5.768;2023-12-07T12:21:44;7.90;85.60
53748;DHT22;39655;53.210;5.768;2023-12-07T12:24:11;8.10;87.10
53748;DHT22;39655;53.210;5.768;2023-12-07T12:26:41;8.20;86.30
53748;DHT22;39655;53.210;5.768;2023-12-07T12:29:07;8.30;84.40
53748;DHT22;39655;53.210;5.768;2023-12-07T12:31:35;8.40;84.60
53748;DHT22;39655;53.210;5.768;2023-12-07T12:34:01;8.40;83.40
53748;DHT22;39655;53.210;5.768;2023-12-07T12:36:27;8.00;82.70
53748;DHT22;39655;53.210;5.768;2023-12-07T12:38:54;7.50;84.30
53748;DHT22;39655;53.210;5.768;2023-12-07T12:41:20;6.70;84.30
53748;DHT22;39655;53.210;5.768;2023-12-07T12:43:46;5.90;84.80
53748;DHT22;39655;53.210;5.768;2023-12-07T12:46:13;5.30;86.00
53748;DHT22;39655;53.210;5.768;2023-12-07T12:48:55;4.70;86.20
53748;DHT22;39655;53.210;5.768;2023-12-07T12:51:23;4.20;86.90
53748;DHT22;39655;53.210;5.768;2023-12-07T12:53:51;3.80;87.70
53748;DHT22;39655;53.210;5.768;2023-12-07T12:56:19;3.50;88.30
53748;DHT22;39655;53.210;5.768;2023-12-07T12:58:45;3.30;89.00
53748;DHT22;39655;53.210;5.768;2023-12-07T13:01:11;3.10;89.50
53748;DHT22;39655;53.210;5.768;2023-12-07T13:03:37;2.90;90.00
53748;DHT22;39655;53.210;5.768;2023-12-07T13:06:03;2.70;90.40
53748;DHT22;39655;53.210;5.768;2023-12-07T13:08:29;2.50;90.70
53748;DHT22;39655;53.210;5.768;2023-12-07T13:10:54;2.40;91.00
53748;DHT22;39655;53.210;5.768;2023-12-07T13:13:20;2.30;91.20
53748;DHT22;39655;53.210;5.768;2023-12-07T13:15:46;2.20;91.40
53748;DHT22;39655;53.210;5.768;2023-12-07T13:18:11;2.20;91.60
53748;DHT22;39655;53.210;5.768;2023-12-07T13:20:38;2.10;91.80
53748;DHT22;39655;53.210;5.768;2023-12-07T13:23:04;2.10;92.00
53748;DHT22;39655;53.210;5.768;2023-12-07T13:25:30;2.00;92.10
53748;DHT22;39655;53.210;5.768;2023-12-07T13:27:56;2.00;92.30
53748;DHT22;39655;53.210;5.768;2023-12-07T13:30:21;1.90;92.50
53748;DHT22;39655;53.210;5.768;2023-12-07T13:32:47;1.90;92.60
53748;DHT22;39655;53.210;5.768;2023-12-07T13:35:13;1.80;92.70
53748;DHT22;39655;53.210;5.768;2023-12-07T13:37:39;1.80;93.00
53748;DHT22;39655;53.210;5.768;2023-12-07T13:40:05;1.80;93.10
53748;DHT22;39655;53.210;5.768;2023-12-07T13:42:36;1.70;93.20
53748;DHT22;39655;53.210;5.768;2023-12-07T13:45:02;1.60;93.30
53748;DHT22;39655;53.210;5.768;2023-12-07T13:47:28;1.60;93.40
53748;DHT22;39655;53.210;5.768;2023-12-07T13:49:58;1.60;93.60
53748;DHT22;39655;53.210;5.768;2023-12-07T13:52:24;1.50;93.70
53748;DHT22;39655;53.210;5.768;2023-12-07T13:54:50;1.50;93.80
53748;DHT22;39655;53.210;5.768;2023-12-07T13:57:18;1.40;93.80
53748;DHT22;39655;53.210;5.768;2023-12-07T13:59:43;1.40;94.00
53748;DHT22;39655;53.210;5.768;2023-12-07T14:02:09;1.40;94.10
53748;DHT22;39655;53.210;5.768;2023-12-07T14:04:35;1.40;94.10
53748;DHT22;39655;53.210;5.768;2023-12-07T14:07:12;1.40;94.20
53748;DHT22;39655;53.210;5.768;2023-12-07T14:09:40;1.40;94.20
53748;DHT22;39655;53.210;5.768;2023-12-07T14:12:06;1.30;94.30
53748;DHT22;39655;53.210;5.768;2023-12-07T14:14:31;1.30;94.30
53748;DHT22;39655;53.210;5.768;2023-12-07T14:16:57;1.30;94.40
53748;DHT22;39655;53.210;5.768;2023-12-07T14:19:23;1.30;94.40
53748;DHT22;39655;53.210;5.768;2023-12-07T14:21:49;1.30;94.50
53748;DHT22;39655;53.210;5.768;2023-12-07T14:24:14;1.20;94.50
53748;DHT22;39655;53.210;5.768;2023-12-07T14:26:43;1.20;94.60
53748;DHT22;39655;53.210;5.768;2023-12-07T14:29:09;1.20;94.70
53748;DHT22;39655;53.210;5.768;2023-12-07T14:31:40;1.20;94.70
53748;DHT22;39655;53.210;5.768;2023-12-07T14:34:06;1.20;94.70
53748;DHT22;39655;53.210;5.768;2023-12-07T14:36:31;1.20;94.70
53748;DHT22;39655;53.210;5.768;2023-12-07T14:38:57;1.10;94.80
53748;DHT22;39655;53.210;5.768;2023-12-07T14:41:23;1.10;94.80
53748;DHT22;39655;53.210;5.768;2023-12-07T14:43:48;1.10;94.90
53748;DHT22;39655;53.210;5.768;2023-12-07T14:46:14;1.10;94.90
53748;DHT22;39655;53.210;5.768;2023-12-07T14:48:40;1.10;94.90
53748;DHT22;39655;53.210;5.768;2023-12-07T14:51:05;1.10;95.00
53748;DHT22;39655;53.210;5.768;2023-12-07T14:53:32;1.20;95.10
53748;DHT22;39655;53.210;5.768;2023-12-07T14:55:59;1.20;95.10
53748;DHT22;39655;53.210;5.768;2023-12-07T14:58:25;1.20;95.10
53748;DHT22;39655;53.210;5.768;2023-12-07T15:00:51;1.20;95.10
53748;DHT22;39655;53.210;5.768;2023-12-07T15:03:17;1.30;95.10
53748;DHT22;39655;53.210;5.768;2023-12-07T15:05:44;1.30;95.20
53748;DHT22;39655;53.210;5.768;2023-12-07T15:08:10;1.30;95.20
53748;DHT22;39655;53.210;5.768;2023-12-07T15:10:37;1.30;95.20
53748;DHT22;39655;53.210;5.768;2023-12-07T15:13:03;1.30;95.20
53748;DHT22;39655;53.210;5.768;2023-12-07T15:15:30;1.20;95.20
53748;DHT22;39655;53.210;5.768;2023-12-07T15:17:56;1.30;95.30
53748;DHT22;39655;53.210;5.768;2023-12-07T15:20:21;1.20;95.30
53748;DHT22;39655;53.210;5.768;2023-12-07T15:22:47;1.30;95.30
53748;DHT22;39655;53.210;5.768;2023-12-07T15:25:13;1.30;95.30
53748;DHT22;39655;53.210;5.768;2023-12-07T15:27:38;1.20;95.30
53748;DHT22;39655;53.210;5.768;2023-12-07T15:30:05;1.30;95.40
53748;DHT22;39655;53.210;5.768;2023-12-07T15:32:33;1.30;95.40
53748;DHT22;39655;53.210;5.768;2023-12-07T15:34:58;1.30;95.40